VTUU/UBP METAR and TAF weather

Enter ICAO airport designator
Station Type Date Time Source
VTUU METAR 2019/12/10 19:00 UTC NOAA

VTUU 101900Z 01005KT CAVOK 16/14 Q1014 NOSIG


Station Type Date Time Source
VTUU Decoded METAR 2019/12/10 19:00 UTC NOAA

Ubon Ratchathani, Thailand (VTUU) 15-15N 104-52E 127M
Dec 10, 2019 - 02:00 PM EST / 2019.12.10 1900 UTC
Wind: from the N (010 degrees) at 6 MPH (5 KT):0
Visibility: greater than 7 mile(s):0
Temperature: 60 F (16 C)
Dew Point: 57 F (14 C)
Relative Humidity: 87%
Pressure (altimeter): 29.94 in. Hg (1014 hPa)
ob: VTUU 101900Z 01005KT CAVOK 16/14 Q1014 NOSIG
cycle: 19

Station Type Date Time Source
VTUU TAF 2019/12/10 18:39 UTC NOAA

TAF VTUU 101700Z 1018/1118 03005KT 9000 NSC
BECMG 1020/1022 4000 BR
BECMG 1100/1102 9000 NSW

Example: see airport list